LTBI

Eskişehir Air Base Airport

Turkey
TAF LTBI 171340Z 1715/1724 32012KT 9999 SCT035 TEMPO 1715/1716 -TSRA BKN025CB BKN030 BECMG 1718/1720 VRB02KT CAVOK
Issued Valid From Valid To
Aug-17 @ 13:40 UTC
(an hour ago)
Aug-17 @ 15:00 UTC
(in 2 minutes)
Aug-18 @ 00:00 UTC
(in 9 hours)
Aug-17 @ 15:00 to Aug-17 @ 18:00
TAF LTBI 171340Z 1715/1724 32012KT 9999 SCT035
Wind Visibility Clouds
320° at 12 knots 10,000+ meters
  • Scattered at 3,500' AGL
Temporary Aug-17 @ 15:00 to Aug-17 @ 16:00
TEMPO 1715/1716 -TSRA BKN025CB BKN030
Clouds Conditions
  • Broken at 2,500' AGL
  • Broken at 3,000' AGL
  • Light Thunderstorm
  • Light Rain
Becoming Aug-17 @ 18:00 to Aug-18 @ 00:00
BECMG 1718/1720 VRB02KT CAVOK
Wind Visibility Clouds Conditions
Variable at 2 knots 10,000+ meters
  • No significant clouds
TAF LTBI 171340Z 1715/1724 32012KT 9999 SCT035 TEMPO 1715/1716 -TSRA BKN025CB BKN030 BECMG 1718/1720 VRB02KT CAVOK
Issued Aug-17 @ 13:40 UTC
(an hour ago)
Valid From Aug-17 @ 15:00 UTC
(in 2 minutes)
Valid To Aug-18 @ 00:00 UTC
(in 9 hours)
Aug-17 @ 15:00 - Aug-17 @ 18:00
Wind Visibility
320° at 12 knots 10,000+ meters
Clouds
  • Scattered at 3,500' AGL
Temporary Aug-17 @ 15:00 - Aug-17 @ 16:00
Clouds
  • Broken at 2,500' AGL
  • Broken at 3,000' AGL
Conditions
  • Light Thunderstorm
  • Light Rain
Becoming Aug-17 @ 18:00 - Aug-18 @ 00:00
Wind Visibility
Variable at 2 knots 10,000+ meters
Clouds
  • No significant clouds
Conditions